createdAt,value
2018-04-17T00:01:31.436Z,5.00
2018-04-17T00:03:58.908Z,4.13
2018-04-17T00:06:26.400Z,4.53
2018-04-17T00:08:53.887Z,4.80
2018-04-17T00:11:21.395Z,4.77
2018-04-17T00:13:49.019Z,4.23
2018-04-17T00:16:16.503Z,4.50
2018-04-17T00:18:43.985Z,5.00
2018-04-17T00:21:11.491Z,4.73
2018-04-17T00:23:38.955Z,4.83
2018-04-17T00:26:06.564Z,11.60
2018-04-17T00:28:34.099Z,21.63
2018-04-17T00:31:01.762Z,30.87
2018-04-17T00:33:29.432Z,25.40
2018-04-17T00:35:57.171Z,5.37
2018-04-17T00:38:24.899Z,5.60
2018-04-17T00:40:52.372Z,5.00
2018-04-17T00:43:19.876Z,5.30
2018-04-17T00:45:47.348Z,4.80
2018-04-17T00:48:14.860Z,5.17
2018-04-17T00:50:42.328Z,4.50
2018-04-17T00:53:21.702Z,5.27
2018-04-17T00:55:49.185Z,5.57
2018-04-17T00:58:16.709Z,9.87
2018-04-17T01:00:44.342Z,31.50
2018-04-17T01:03:12.078Z,27.87
2018-04-17T01:05:39.690Z,28.00
2018-04-17T01:08:07.558Z,26.93
2018-04-17T01:10:35.611Z,30.10
2018-04-17T01:13:03.272Z,32.57
2018-04-17T01:15:30.772Z,26.67
2018-04-17T01:17:59.262Z,27.93
2018-04-17T01:20:27.073Z,28.20
2018-04-17T01:22:55.160Z,29.73
2018-04-17T01:25:22.717Z,24.00
2018-04-17T01:27:50.595Z,29.70
2018-04-17T01:30:18.302Z,23.57
2018-04-17T01:32:45.998Z,25.83
2018-04-17T01:35:13.498Z,5.97
2018-04-17T01:37:40.995Z,6.30
2018-04-17T01:40:08.477Z,6.57
2018-04-17T01:42:35.935Z,5.97
2018-04-17T01:45:03.453Z,6.27
2018-04-17T01:47:30.948Z,6.80
2018-04-17T01:49:58.465Z,6.10
2018-04-17T01:52:25.956Z,6.80
2018-04-17T01:54:53.667Z,25.07
2018-04-17T01:57:21.215Z,16.77
2018-04-17T01:59:48.791Z,16.97
2018-04-17T02:02:16.282Z,18.23
2018-04-17T02:04:43.786Z,17.87
2018-04-17T02:07:11.289Z,16.83
2018-04-17T02:09:38.838Z,15.40
2018-04-17T02:12:06.324Z,19.17
2018-04-17T02:14:33.865Z,18.50
2018-04-17T02:17:01.359Z,19.10
2018-04-17T02:19:28.906Z,15.10
2018-04-17T02:21:56.501Z,16.07
2018-04-17T02:24:23.990Z,8.33
2018-04-17T02:26:51.541Z,8.17
2018-04-17T02:29:19.045Z,7.30
2018-04-17T02:31:46.533Z,7.10
2018-04-17T02:34:14.019Z,7.30
2018-04-17T02:36:41.488Z,7.87
2018-04-17T02:39:08.976Z,8.47
2018-04-17T02:41:36.464Z,8.80
2018-04-17T02:44:03.979Z,9.07
2018-04-17T02:46:31.444Z,8.40
2018-04-17T02:48:59.264Z,8.77
2018-04-17T02:51:26.862Z,9.00
2018-04-17T02:53:54.365Z,9.50
2018-04-17T02:56:21.835Z,10.53
2018-04-17T02:58:49.325Z,8.60
2018-04-17T03:01:16.819Z,8.77
2018-04-17T03:03:44.349Z,9.00
2018-04-17T03:06:11.972Z,31.37
2018-04-17T03:08:39.463Z,9.27
2018-04-17T03:11:06.958Z,8.70
2018-04-17T03:13:34.451Z,8.23
2018-04-17T03:16:01.964Z,8.33
2018-04-17T03:18:29.436Z,8.17
2018-04-17T03:20:56.927Z,8.10
2018-04-17T03:23:24.395Z,7.93
2018-04-17T03:25:51.905Z,7.47
2018-04-17T03:28:19.403Z,11.77
2018-04-17T03:30:46.966Z,14.30
2018-04-17T03:33:14.511Z,14.27
2018-04-17T03:35:42.019Z,7.17
2018-04-17T03:38:09.483Z,7.30
2018-04-17T03:40:37.000Z,6.07
2018-04-17T03:43:04.476Z,6.17
2018-04-17T03:45:31.969Z,5.83
2018-04-17T03:47:59.472Z,5.83
2018-04-17T03:50:26.967Z,5.50
2018-04-17T03:52:54.427Z,6.17
2018-04-17T03:55:21.919Z,6.07
2018-04-17T03:57:49.382Z,6.37
2018-04-17T04:00:16.892Z,7.17
2018-04-17T04:02:44.400Z,5.97
2018-04-17T04:05:11.842Z,6.30
2018-04-17T04:07:39.333Z,6.00
2018-04-17T04:10:06.795Z,6.87
2018-04-17T04:12:34.343Z,7.27
2018-04-17T04:15:01.931Z,6.93
2018-04-17T04:17:41.192Z,7.63
2018-04-17T04:20:20.683Z,7.37
2018-04-17T04:23:00.016Z,7.53
2018-04-17T04:25:52.426Z,6.90
2018-04-17T04:28:19.893Z,6.90
2018-04-17T04:30:47.356Z,6.77
2018-04-17T04:33:14.851Z,7.97
2018-04-17T04:35:42.429Z,7.27
2018-04-17T04:38:09.923Z,8.00
2018-04-17T04:40:37.412Z,9.37
2018-04-17T04:43:04.944Z,10.27
2018-04-17T04:45:32.420Z,10.00
2018-04-17T04:47:59.902Z,8.13
2018-04-17T04:50:27.443Z,8.33
2018-04-17T04:52:54.926Z,8.50
2018-04-17T04:55:22.418Z,9.73
2018-04-17T04:57:49.940Z,8.67
2018-04-17T05:00:17.412Z,10.40
2018-04-17T05:02:44.902Z,10.23
2018-04-17T05:05:12.375Z,9.23
2018-04-17T05:07:39.858Z,8.63
2018-04-17T05:10:07.413Z,9.27
2018-04-17T05:12:34.900Z,8.90
2018-04-17T05:15:02.372Z,9.00
2018-04-17T05:17:29.878Z,8.83
2018-04-17T05:19:57.424Z,11.87
2018-04-17T05:22:25.011Z,10.57
2018-04-17T05:24:52.567Z,8.97
2018-04-17T05:27:20.057Z,7.67
2018-04-17T05:29:47.531Z,7.03
2018-04-17T05:32:15.008Z,7.97
2018-04-17T05:34:42.500Z,7.47
2018-04-17T05:37:09.964Z,7.30
2018-04-17T05:39:37.471Z,7.83
2018-04-17T05:42:04.943Z,7.00
2018-04-17T05:44:32.419Z,8.10
2018-04-17T05:47:00.840Z,7.93
2018-04-17T05:49:28.332Z,8.10
2018-04-17T05:51:55.822Z,14.07
2018-04-17T05:54:23.319Z,8.47
2018-04-17T05:56:50.796Z,8.03
2018-04-17T05:59:18.384Z,7.77
2018-04-17T06:01:45.859Z,8.23
2018-04-17T06:04:13.355Z,8.40
2018-04-17T06:06:40.857Z,7.73
2018-04-17T06:09:08.375Z,8.77
2018-04-17T06:11:35.908Z,9.17
2018-04-17T06:14:03.412Z,8.53
2018-04-17T06:16:30.883Z,8.27
2018-04-17T06:18:58.383Z,9.10
2018-04-17T06:21:25.937Z,8.83
2018-04-17T06:23:53.435Z,9.00
2018-04-17T06:26:20.932Z,9.00
2018-04-17T06:28:48.446Z,8.60
2018-04-17T06:31:15.951Z,8.90
2018-04-17T06:33:43.471Z,9.07
2018-04-17T06:36:10.982Z,9.20
2018-04-17T06:38:38.495Z,9.43
2018-04-17T06:41:06.043Z,10.20
2018-04-17T06:43:34.623Z,10.53
2018-04-17T06:46:02.222Z,11.03
2018-04-17T06:48:29.730Z,10.03
2018-04-17T06:50:57.227Z,10.97
2018-04-17T06:53:24.783Z,12.23
2018-04-17T06:55:52.285Z,9.63
2018-04-17T06:58:19.759Z,9.30
2018-04-17T07:00:48.686Z,9.30
2018-04-17T07:03:16.193Z,10.53
2018-04-17T07:05:43.772Z,10.57
2018-04-17T07:08:11.296Z,9.10
2018-04-17T07:10:38.796Z,9.47
2018-04-17T07:13:06.271Z,8.90
2018-04-17T07:15:33.801Z,8.70
2018-04-17T07:18:01.279Z,8.10
2018-04-17T07:20:28.791Z,8.40
2018-04-17T07:22:56.296Z,9.43
2018-04-17T07:25:23.787Z,9.20
2018-04-17T07:27:51.298Z,8.93
2018-04-17T07:30:18.848Z,8.83
2018-04-17T07:32:46.335Z,9.10
2018-04-17T07:35:13.828Z,7.27
2018-04-17T07:37:41.338Z,8.03
2018-04-17T07:40:09.015Z,8.40
2018-04-17T07:42:36.531Z,8.57
2018-04-17T07:45:04.018Z,7.77
2018-04-17T07:47:31.501Z,8.03
2018-04-17T07:49:59.014Z,8.37
2018-04-17T07:52:26.489Z,8.13
2018-04-17T07:54:53.990Z,7.40
2018-04-17T07:57:21.495Z,7.50
2018-04-17T07:59:49.839Z,7.73
2018-04-17T08:02:17.686Z,8.30
2018-04-17T08:04:45.155Z,6.83
2018-04-17T08:07:12.646Z,6.97
2018-04-17T08:09:40.147Z,7.10
2018-04-17T08:12:07.650Z,7.30
2018-04-17T08:14:35.115Z,7.30
2018-04-17T08:17:02.607Z,7.80
2018-04-17T08:19:30.261Z,7.87
2018-04-17T08:21:57.766Z,8.20
2018-04-17T08:24:25.425Z,7.40
2018-04-17T08:26:52.930Z,6.83
2018-04-17T08:29:20.426Z,6.23
2018-04-17T08:31:47.948Z,6.93
2018-04-17T08:34:15.485Z,5.87
2018-04-17T08:36:42.992Z,5.30
2018-04-17T08:39:10.488Z,5.80
2018-04-17T08:41:38.001Z,5.73
2018-04-17T08:44:06.492Z,5.50
2018-04-17T08:46:33.987Z,4.90
2018-04-17T08:49:01.680Z,5.13
2018-04-17T08:51:29.289Z,5.07
2018-04-17T08:53:56.868Z,4.67
2018-04-17T08:56:24.406Z,6.10
2018-04-17T08:58:51.909Z,5.33
2018-04-17T09:01:19.423Z,4.70
2018-04-17T09:03:47.130Z,4.77
2018-04-17T09:06:14.639Z,4.67
2018-04-17T09:08:45.037Z,4.40
2018-04-17T09:11:12.856Z,4.27
2018-04-17T09:13:40.959Z,4.50
2018-04-17T09:16:08.483Z,4.70
2018-04-17T09:18:35.979Z,4.60
2018-04-17T09:21:03.455Z,4.50
2018-04-17T09:23:30.938Z,4.97
2018-04-17T09:25:58.436Z,4.50
2018-04-17T09:28:25.946Z,5.20
2018-04-17T09:30:53.526Z,4.90
2018-04-17T09:33:21.044Z,6.20
2018-04-17T09:35:48.821Z,5.00
2018-04-17T09:38:17.898Z,4.83
2018-04-17T09:40:45.387Z,4.10
2018-04-17T09:43:15.323Z,4.20
2018-04-17T09:45:44.696Z,3.80
2018-04-17T09:48:15.985Z,3.70
2018-04-17T09:50:47.183Z,4.62
2018-04-17T09:53:14.868Z,5.12
2018-04-17T09:55:42.395Z,3.95
2018-04-17T09:58:09.895Z,4.32
2018-04-17T10:00:43.168Z,4.55
2018-04-17T10:03:10.660Z,4.75
2018-04-17T10:05:38.187Z,4.28
2018-04-17T10:08:05.690Z,3.42
2018-04-17T10:10:33.305Z,3.17
2018-04-17T10:13:00.812Z,3.58
2018-04-17T10:15:28.282Z,3.83
2018-04-17T10:17:55.777Z,3.40
2018-04-17T10:20:23.362Z,20.42
2018-04-17T10:22:50.843Z,9.32
2018-04-17T10:25:18.371Z,8.80
2018-04-17T10:27:45.872Z,8.50
2018-04-17T10:30:13.403Z,10.15
2018-04-17T10:32:40.885Z,9.90
2018-04-17T10:35:08.399Z,9.50
2018-04-17T10:37:35.911Z,9.35
2018-04-17T10:40:03.436Z,2.95
2018-04-17T10:42:30.915Z,4.97
2018-04-17T10:44:58.501Z,6.30
2018-04-17T10:47:26.367Z,4.10
2018-04-17T10:49:53.873Z,4.68
2018-04-17T10:52:21.339Z,4.35
2018-04-17T10:54:48.835Z,6.50
2018-04-17T10:57:16.354Z,4.78
2018-04-17T10:59:43.862Z,4.15
2018-04-17T11:02:11.367Z,2.85
2018-04-17T11:04:38.907Z,2.70
2018-04-17T11:07:06.399Z,9.38
2018-04-17T11:09:33.932Z,12.68
2018-04-17T11:12:01.448Z,12.90
2018-04-17T11:14:28.954Z,10.05
2018-04-17T11:16:56.584Z,15.70
2018-04-17T11:19:24.138Z,13.82
2018-04-17T11:21:51.697Z,16.58
2018-04-17T11:24:19.265Z,17.73
2018-04-17T11:26:46.809Z,15.27
2018-04-17T11:29:15.424Z,14.45
2018-04-17T11:31:43.053Z,13.50
2018-04-17T11:34:10.571Z,14.38
2018-04-17T11:36:38.116Z,14.23
2018-04-17T11:39:12.703Z,14.00
2018-04-17T11:41:40.198Z,14.52
2018-04-17T11:44:07.751Z,3.22
2018-04-17T11:46:35.222Z,3.20
2018-04-17T11:49:02.718Z,3.08
2018-04-17T11:51:30.207Z,3.05
2018-04-17T11:53:57.705Z,3.00
2018-04-17T11:56:25.251Z,3.28
2018-04-17T11:58:52.736Z,3.45
2018-04-17T12:01:20.302Z,3.42
2018-04-17T12:03:47.787Z,3.00
2018-04-17T12:06:15.288Z,3.30
2018-04-17T12:08:42.772Z,2.85
2018-04-17T12:11:10.272Z,2.70
2018-04-17T12:13:37.744Z,3.03
2018-04-17T12:16:05.243Z,3.08
2018-04-17T12:18:32.714Z,3.15
2018-04-17T12:21:00.223Z,2.37
2018-04-17T12:23:27.721Z,3.40
2018-04-17T12:25:55.225Z,2.80
2018-04-17T12:28:22.703Z,2.78
2018-04-17T12:30:50.196Z,3.10
2018-04-17T12:33:17.699Z,3.37
2018-04-17T12:35:45.191Z,3.08
2018-04-17T12:38:12.666Z,2.85
2018-04-17T12:40:40.173Z,3.05
2018-04-17T12:43:07.685Z,2.80
2018-04-17T12:45:35.221Z,3.62
2018-04-17T12:48:02.695Z,2.87
2018-04-17T12:50:30.216Z,3.58
2018-04-17T12:52:57.720Z,3.15
2018-04-17T12:55:25.212Z,3.28
2018-04-17T12:57:52.688Z,3.47
2018-04-17T13:00:20.223Z,3.50
2018-04-17T13:02:47.692Z,2.85
2018-04-17T13:05:15.183Z,3.00
2018-04-17T13:07:42.655Z,2.50
2018-04-17T13:10:10.172Z,2.83
2018-04-17T13:12:37.646Z,2.37
2018-04-17T13:15:05.135Z,2.97
2018-04-17T13:17:32.612Z,2.53
2018-04-17T13:20:00.112Z,2.65
2018-04-17T13:22:27.595Z,3.08
2018-04-17T13:24:55.101Z,3.10
2018-04-17T13:27:22.641Z,3.40
2018-04-17T13:29:50.113Z,2.83
2018-04-17T13:32:17.611Z,4.10
2018-04-17T13:34:45.090Z,2.60
2018-04-17T13:37:12.596Z,2.30
2018-04-17T13:39:40.067Z,2.37
2018-04-17T13:42:07.555Z,2.83
2018-04-17T13:44:35.040Z,2.15
2018-04-17T13:47:02.563Z,2.55
2018-04-17T13:49:30.135Z,2.90
2018-04-17T13:51:57.629Z,2.67
2018-04-17T13:54:25.144Z,2.40
2018-04-17T13:56:52.640Z,2.47
2018-04-17T13:59:20.107Z,2.25
2018-04-17T14:01:47.672Z,2.28
2018-04-17T14:04:15.102Z,2.47
2018-04-17T14:06:42.630Z,2.72
2018-04-17T14:09:10.097Z,2.58
2018-04-17T14:11:37.599Z,2.37
2018-04-17T14:14:05.094Z,2.20
2018-04-17T14:16:32.585Z,2.45
2018-04-17T14:19:00.064Z,2.42
2018-04-17T14:21:27.591Z,2.97
2018-04-17T14:23:55.083Z,2.20
2018-04-17T14:26:22.784Z,3.03
2018-04-17T14:28:50.268Z,2.60
2018-04-17T14:31:17.906Z,2.67
2018-04-17T14:33:45.380Z,3.22
2018-04-17T14:36:12.912Z,2.55
2018-04-17T14:38:40.410Z,2.17
2018-04-17T14:41:07.928Z,2.78
2018-04-17T14:43:35.543Z,2.58
2018-04-17T14:46:03.043Z,2.45
2018-04-17T14:48:30.536Z,2.55
2018-04-17T14:50:58.476Z,2.58
2018-04-17T14:53:26.005Z,3.37
2018-04-17T14:55:53.663Z,3.00
2018-04-17T14:58:21.183Z,3.90
2018-04-17T15:00:48.655Z,2.10
2018-04-17T15:03:16.167Z,2.65
2018-04-17T15:05:43.633Z,2.28
2018-04-17T15:08:11.146Z,2.58
2018-04-17T15:10:38.643Z,2.20
2018-04-17T15:13:06.134Z,2.00
2018-04-17T15:15:33.826Z,2.40
2018-04-17T15:18:01.351Z,2.22
2018-04-17T15:20:28.821Z,2.90
2018-04-17T15:22:56.419Z,2.08
2018-04-17T15:25:23.925Z,2.72
2018-04-17T15:27:51.431Z,2.95
2018-04-17T15:30:18.936Z,2.53
2018-04-17T15:32:46.558Z,2.20
2018-04-17T15:35:14.025Z,2.00
2018-04-17T15:37:41.568Z,2.58
2018-04-17T15:40:09.049Z,2.30
2018-04-17T15:42:36.563Z,2.95
2018-04-17T15:45:04.047Z,2.83
2018-04-17T15:47:31.543Z,3.15
2018-04-17T15:49:59.048Z,2.20
2018-04-17T15:52:26.546Z,2.60
2018-04-17T15:54:54.015Z,3.50
2018-04-17T15:57:22.611Z,2.70
2018-04-17T15:59:50.103Z,2.67
2018-04-17T16:02:17.631Z,2.97
2018-04-17T16:04:45.104Z,2.85
2018-04-17T16:07:12.651Z,2.08
2018-04-17T16:09:40.158Z,2.50
2018-04-17T16:12:07.658Z,2.47
2018-04-17T16:14:35.140Z,2.60
2018-04-17T16:17:02.683Z,2.80
2018-04-17T16:19:30.160Z,3.08
2018-04-17T16:21:57.979Z,2.58
2018-04-17T16:24:25.449Z,4.25
2018-04-17T16:26:52.915Z,2.33
2018-04-17T16:29:20.465Z,2.83
2018-04-17T16:31:47.952Z,2.83
2018-04-17T16:34:15.444Z,3.17
2018-04-17T16:36:42.972Z,2.97
2018-04-17T16:39:10.467Z,2.58
2018-04-17T16:41:38.004Z,2.75
2018-04-17T16:44:05.495Z,2.65
2018-04-17T16:46:35.640Z,4.20
2018-04-17T16:49:03.227Z,2.17
2018-04-17T16:51:30.707Z,2.42
2018-04-17T16:53:58.308Z,2.67
2018-04-17T16:56:25.801Z,3.90
2018-04-17T16:58:53.355Z,2.72
2018-04-17T17:01:20.828Z,3.60
2018-04-17T17:03:48.558Z,3.25
2018-04-17T17:06:16.033Z,3.00
2018-04-17T17:08:43.533Z,2.97
2018-04-17T17:11:11.001Z,2.83
2018-04-17T17:13:38.503Z,2.80
2018-04-17T17:16:05.971Z,3.15
2018-04-17T17:18:33.464Z,3.05
2018-04-17T17:21:00.975Z,2.37
2018-04-17T17:23:28.487Z,2.80
2018-04-17T17:25:55.983Z,2.87
2018-04-17T17:28:23.612Z,3.08
2018-04-17T17:30:51.093Z,2.30
2018-04-17T17:33:18.607Z,2.28
2018-04-17T17:35:46.092Z,2.30
2018-04-17T17:38:13.624Z,2.50
2018-04-17T17:40:41.101Z,2.05
2018-04-17T17:43:08.663Z,2.65
2018-04-17T17:45:36.308Z,2.42
2018-04-17T17:48:03.859Z,2.60
2018-04-17T17:50:31.319Z,3.53
2018-04-17T17:52:58.843Z,2.80
2018-04-17T17:55:26.340Z,3.45
2018-04-17T17:57:53.849Z,3.00
2018-04-17T18:00:21.320Z,3.37
2018-04-17T18:02:48.786Z,2.60
2018-04-17T18:05:16.284Z,2.35
2018-04-17T18:07:43.751Z,2.50
2018-04-17T18:10:11.257Z,2.77
2018-04-17T18:12:38.739Z,2.92
2018-04-17T18:15:06.247Z,3.77
2018-04-17T18:17:33.751Z,4.68
2018-04-17T18:20:01.248Z,4.55
2018-04-17T18:22:28.719Z,4.32
2018-04-17T18:24:56.336Z,4.00
2018-04-17T18:27:23.905Z,3.30
2018-04-17T18:29:51.685Z,2.67
2018-04-17T18:32:19.166Z,2.80
2018-04-17T18:34:46.703Z,2.78
2018-04-17T18:37:14.179Z,2.43
2018-04-17T18:39:41.685Z,2.60
2018-04-17T18:42:09.376Z,2.90
2018-04-17T18:44:36.903Z,3.55
2018-04-17T18:47:04.398Z,3.45
2018-04-17T18:49:31.994Z,3.57
2018-04-17T18:51:59.475Z,2.80
2018-04-17T18:54:26.967Z,3.47
2018-04-17T18:56:54.447Z,3.43
2018-04-17T18:59:21.993Z,3.57
2018-04-17T19:01:49.524Z,3.30
2018-04-17T19:04:17.027Z,3.13
2018-04-17T19:06:44.510Z,3.37
2018-04-17T19:09:12.003Z,2.77
2018-04-17T19:11:39.483Z,3.17
2018-04-17T19:14:07.052Z,3.80
2018-04-17T19:16:34.525Z,3.83
2018-04-17T19:19:02.027Z,3.90
2018-04-17T19:21:29.540Z,4.33
2018-04-17T19:23:57.180Z,4.73
2018-04-17T19:26:24.763Z,3.30
2018-04-17T19:28:52.253Z,3.10
2018-04-17T19:31:19.768Z,3.30
2018-04-17T19:33:47.247Z,3.83
2018-04-17T19:36:14.744Z,3.70
2018-04-17T19:38:42.211Z,4.17
2018-04-17T19:41:09.727Z,3.93
2018-04-17T19:43:37.704Z,7.10
2018-04-17T19:46:05.195Z,3.00
2018-04-17T19:48:32.659Z,3.40
2018-04-17T19:51:00.234Z,3.10
2018-04-17T19:53:27.764Z,3.77
2018-04-17T19:55:55.264Z,2.63
2018-04-17T19:58:22.790Z,3.03
2018-04-17T20:00:50.391Z,2.50
2018-04-17T20:03:17.916Z,3.23
2018-04-17T20:05:45.407Z,2.47
2018-04-17T20:08:12.953Z,2.47
2018-04-17T20:10:40.447Z,2.80
2018-04-17T20:13:07.943Z,2.80
2018-04-17T20:15:35.435Z,2.60
2018-04-17T20:18:02.925Z,2.80
2018-04-17T20:20:30.452Z,3.33
2018-04-17T20:22:57.939Z,2.90
2018-04-17T20:25:25.454Z,2.97
2018-04-17T20:27:52.989Z,3.70
2018-04-17T20:30:20.480Z,4.27
2018-04-17T20:32:48.040Z,4.03
2018-04-17T20:35:15.539Z,3.83
2018-04-17T20:37:43.016Z,4.27
2018-04-17T20:40:10.509Z,4.23
2018-04-17T20:42:38.052Z,4.07
2018-04-17T20:45:05.634Z,3.57
2018-04-17T20:47:33.121Z,3.40
2018-04-17T20:50:00.615Z,3.37
2018-04-17T20:52:28.115Z,4.50
2018-04-17T20:54:55.601Z,4.73
2018-04-17T20:57:23.107Z,4.57
2018-04-17T20:59:50.583Z,4.80
2018-04-17T21:02:18.085Z,4.30
2018-04-17T21:04:45.552Z,3.30
2018-04-17T21:07:13.056Z,3.50
2018-04-17T21:09:40.526Z,3.20
2018-04-17T21:12:08.148Z,2.87
2018-04-17T21:14:36.733Z,2.83
2018-04-17T21:17:04.228Z,3.23
2018-04-17T21:19:31.707Z,4.27
2018-04-17T21:21:59.311Z,3.50
2018-04-17T21:24:26.826Z,4.07
2018-04-17T21:26:55.254Z,2.23
2018-04-17T21:29:22.896Z,20.37
2018-04-17T21:31:50.467Z,2.47
2018-04-17T21:34:17.947Z,2.80
2018-04-17T21:36:45.476Z,2.30
2018-04-17T21:39:12.959Z,44.10
2018-04-17T21:41:40.467Z,2.73
2018-04-17T21:44:07.931Z,3.07
2018-04-17T21:46:35.426Z,3.87
2018-04-17T21:49:03.618Z,7.40
2018-04-17T21:51:31.205Z,2.63
2018-04-17T21:53:58.743Z,3.30
2018-04-17T21:56:26.240Z,2.70
2018-04-17T21:58:53.938Z,51.20
2018-04-17T22:01:36.353Z,2.50
2018-04-17T22:04:04.158Z,38.10
2018-04-17T22:06:31.641Z,2.60
2018-04-17T22:08:59.170Z,2.70
2018-04-17T22:11:26.697Z,2.43
2018-04-17T22:13:54.167Z,2.47
2018-04-17T22:16:21.655Z,2.67
2018-04-17T22:18:49.162Z,2.50
2018-04-17T22:21:16.799Z,2.73
2018-04-17T22:23:44.324Z,2.20
2018-04-17T22:26:11.842Z,2.47
2018-04-17T22:28:39.315Z,2.70
2018-04-17T22:31:06.807Z,2.10
2018-04-17T22:33:34.287Z,2.50
2018-04-17T22:36:01.779Z,1.90
2018-04-17T22:38:29.267Z,2.27
2018-04-17T22:40:56.760Z,2.20
2018-04-17T22:43:24.251Z,2.50
2018-04-17T22:45:51.719Z,2.10
2018-04-17T22:48:19.203Z,2.47
2018-04-17T22:50:46.667Z,2.33
2018-04-17T22:53:14.184Z,2.97
2018-04-17T22:55:41.659Z,2.13
2018-04-17T22:58:09.151Z,2.80
2018-04-17T23:00:36.663Z,2.67
2018-04-17T23:03:04.196Z,2.33
2018-04-17T23:05:31.663Z,4.57
2018-04-17T23:07:59.562Z,3.40
2018-04-17T23:10:27.101Z,4.30
2018-04-17T23:12:54.660Z,4.00
2018-04-17T23:15:22.128Z,4.07
2018-04-17T23:17:49.621Z,3.70
2018-04-17T23:20:17.114Z,4.43
2018-04-17T23:22:44.603Z,3.93
2018-04-17T23:25:12.068Z,4.43
2018-04-17T23:27:39.562Z,3.77
2018-04-17T23:30:07.087Z,3.50
2018-04-17T23:32:34.586Z,3.87
2018-04-17T23:35:02.088Z,3.53
2018-04-17T23:37:29.791Z,3.50
2018-04-17T23:39:57.350Z,3.90
2018-04-17T23:42:24.862Z,3.63
2018-04-17T23:44:52.471Z,3.40
2018-04-17T23:47:20.004Z,3.73
2018-04-17T23:49:47.551Z,3.73
2018-04-17T23:52:15.051Z,4.17
2018-04-17T23:54:42.519Z,4.03
2018-04-17T23:57:10.009Z,4.13
2018-04-17T23:59:37.507Z,3.60
